地図

経路データ

SID SEASON NUMBER BASIN SUBBASIN NAME ISO_TIME NATURE LAT LON WMO_WIND WMO_PRES WMO_AGENCY TRACK_TYPE DIST2LAND LANDFALL IFLAG USA_AGENCY USA_ATCF_ID USA_LAT USA_LON USA_RECORD USA_STATUS USA_WIND USA_PRES USA_SSHS USA_R34_NE USA_R34_SE USA_R34_SW USA_R34_NW USA_R50_NE USA_R50_SE USA_R50_SW USA_R50_NW USA_R64_NE USA_R64_SE USA_R64_SW USA_R64_NW USA_POCI USA_ROCI USA_RMW USA_EYE TOKYO_LAT TOKYO_LON TOKYO_GRADE TOKYO_WIND TOKYO_PRES TOKYO_R50_DIR TOKYO_R50_LONG TOKYO_R50_SHORT TOKYO_R30_DIR TOKYO_R30_LONG TOKYO_R30_SHORT TOKYO_LAND CMA_LAT CMA_LON CMA_CAT CMA_WIND CMA_PRES HKO_LAT HKO_LON HKO_CAT HKO_WIND HKO_PRES NEWDELHI_LAT NEWDELHI_LON NEWDELHI_GRADE NEWDELHI_WIND NEWDELHI_PRES NEWDELHI_CI NEWDELHI_DP NEWDELHI_POCI REUNION_LAT REUNION_LON REUNION_TYPE REUNION_WIND REUNION_PRES REUNION_TNUM REUNION_CI REUNION_RMW REUNION_R34_NE REUNION_R34_SE REUNION_R34_SW REUNION_R34_NW REUNION_R50_NE REUNION_R50_SE REUNION_R50_SW REUNION_R50_NW REUNION_R64_NE REUNION_R64_SE REUNION_R64_SW REUNION_R64_NW BOM_LAT BOM_LON BOM_TYPE BOM_WIND BOM_PRES BOM_TNUM BOM_CI BOM_RMW BOM_R34_NE BOM_R34_SE BOM_R34_SW BOM_R34_NW BOM_R50_NE BOM_R50_SE BOM_R50_SW BOM_R50_NW BOM_R64_NE BOM_R64_SE BOM_R64_SW BOM_R64_NW BOM_ROCI BOM_POCI BOM_EYE BOM_POS_METHOD BOM_PRES_METHOD NADI_LAT NADI_LON NADI_CAT NADI_WIND NADI_PRES WELLINGTON_LAT WELLINGTON_LON WELLINGTON_WIND WELLINGTON_PRES DS824_LAT DS824_LON DS824_STAGE DS824_WIND DS824_PRES TD9636_LAT TD9636_LON TD9636_STAGE TD9636_WIND TD9636_PRES TD9635_LAT TD9635_LON TD9635_WIND TD9635_PRES TD9635_ROCI NEUMANN_LAT NEUMANN_LON NEUMANN_CLASS NEUMANN_WIND NEUMANN_PRES MLC_LAT MLC_LON MLC_CLASS MLC_WIND MLC_PRES USA_GUST BOM_GUST BOM_GUST_PER REUNION_GUST REUNION_GUST_PER USA_SEAHGT USA_SEARAD_NE USA_SEARAD_SE USA_SEARAD_SW USA_SEARAD_NW STORM_SPEED STORM_DIR
1912308N05143 1912 61 WP MM NOT_NAMED 1912-11-03 04:00:00 NR 5.00000 143.000 main 875 872 __________O___ -1 5.00000 143.000 7 14 296
1912308N05143 1912 61 WP MM NOT_NAMED 1912-11-03 06:00:00 NR 5.20700 142.569 main 885 883 __________P___ -1 5.20700 142.569 7 14 296
1912308N05143 1912 61 WP MM NOT_NAMED 1912-11-03 09:00:00 NR 5.51463 141.927 main 892 889 __________P___ -1 5.51463 141.927 7 14 296
1912308N05143 1912 61 WP MM NOT_NAMED 1912-11-03 12:00:00 NR 5.81553 141.299 main 898 893 __________P___ -1 5.81553 141.299 7 14 296
1912308N05143 1912 61 WP MM NOT_NAMED 1912-11-03 15:00:00 NR 6.10607 140.695 main 906 903 __________P___ -1 6.10607 140.695 7 13 296
1912308N05143 1912 61 WP MM NOT_NAMED 1912-11-03 16:00:00 NR 6.20000 140.500 main 910 907 __________O___ -1 6.20000 140.500 7 13 296
1912308N05143 1912 61 WP MM NOT_NAMED 1912-11-03 18:00:00 NR 6.38289 140.120 main 921 918 __________P___ -1 6.38289 140.120 7 12 295
1912308N05143 1912 61 WP MM NOT_NAMED 1912-11-03 21:00:00 NR 6.64491 139.558 main 925 921 __________P___ -1 6.64491 139.558 7 13 294
1912308N05143 1912 61 WP MM NOT_NAMED 1912-11-04 00:00:00 NR 6.89240 138.973 main 929 921 __________P___ -1 6.89240 138.973 7 13 292
1912308N05143 1912 61 WP MM NOT_NAMED 1912-11-04 03:00:00 NR 7.12550 138.332 main 924 924 __________P___ -1 7.12550 138.332 7 14 290
1912308N05143 1912 61 WP MM NOT_NAMED 1912-11-04 04:00:00 NR 7.20000 138.100 main 927 921 __________O___ -1 7.20000 138.100 7 15 286
1912308N05143 1912 61 WP MM NOT_NAMED 1912-11-04 06:00:00 NR 7.33955 137.593 main 923 924 __________P___ -1 7.33955 137.593 7 16 284
1912308N05143 1912 61 WP MM NOT_NAMED 1912-11-04 09:00:00 NR 7.53609 136.769 main 928 926 __________P___ -1 7.53609 136.769 7 17 283
1912308N05143 1912 61 WP MM NOT_NAMED 1912-11-04 12:00:00 NR 7.72837 135.895 main 941 923 __________P___ -1 7.72837 135.895 7 18 283
1912308N05143 1912 61 WP MM NOT_NAMED 1912-11-04 15:00:00 NR 7.92903 134.999 main 923 893 __________P___ -1 7.92903 134.999 7 18 283
1912308N05143 1912 61 WP MM NOT_NAMED 1912-11-04 16:00:00 NR 8.00000 134.700 main 893 828 __________O___ -1 8.00000 134.700 7 18 284
1912308N05143 1912 61 WP MM NOT_NAMED 1912-11-04 18:00:00 NR 8.15223 134.125 main 828 742 __________P___ -1 8.15223 134.125 7 18 285
1912308N05143 1912 61 WP MM NOT_NAMED 1912-11-04 21:00:00 NR 8.39338 133.256 main 742 646 __________P___ -1 8.39338 133.256 7 18 286
1912308N05143 1912 61 WP MM NOT_NAMED 1912-11-05 00:00:00 NR 8.64719 132.380 main 646 556 __________P___ -1 8.64719 132.380 7 18 287
1912308N05143 1912 61 WP MM NOT_NAMED 1912-11-05 03:00:00 NR 8.91059 131.496 main 556 527 __________P___ -1 8.91059 131.496 7 18 287
1912308N05143 1912 61 WP MM NOT_NAMED 1912-11-05 04:00:00 NR 9.00000 131.200 main 527 471 __________O___ -1 9.00000 131.200 7 19 288
1912308N05143 1912 61 WP MM NOT_NAMED 1912-11-05 06:00:00 NR 9.19311 130.595 main 471 381 __________P___ -1 9.19311 130.595 7 19 288
1912308N05143 1912 61 WP MM NOT_NAMED 1912-11-05 09:00:00 NR 9.48969 129.682 main 381 293 __________P___ -1 9.48969 129.682 7 19 288
1912308N05143 1912 61 WP MM NOT_NAMED 1912-11-05 12:00:00 NR 9.77498 128.774 main 293 206 __________P___ -1 9.77498 128.774 7 19 287
1912308N05143 1912 61 WP MM NOT_NAMED 1912-11-05 15:00:00 NR 10.0271 127.888 main 206 183 __________P___ -1 10.0271 127.888 7 18 286
1912308N05143 1912 61 WP MM NOT_NAMED 1912-11-05 16:00:00 NR 10.1000 127.600 main 183 143 __________O___ -1 10.1000 127.600 7 17 283
1912308N05143 1912 61 WP MM NOT_NAMED 1912-11-05 18:00:00 NR 10.2139 127.064 main 143 95 __________P___ -1 10.2139 127.064 7 16 281
1912308N05143 1912 61 WP MM NOT_NAMED 1912-11-05 21:00:00 NR 10.3474 126.286 main 95 31 __________P___ -1 10.3474 126.286 7 16 279
1912308N05143 1912 61 WP MM NOT_NAMED 1912-11-06 00:00:00 NR 10.4560 125.507 main 31 0 __________P___ -1 10.4560 125.507 7 16 278
1912308N05143 1912 61 WP MM NOT_NAMED 1912-11-06 03:00:00 NR 10.5617 124.688 main 10 15 __________P___ -1 10.5617 124.688 7 16 278
1912308N05143 1912 61 WP MM NOT_NAMED 1912-11-06 04:00:00 NR 10.6000 124.400 main 33 0 __________O___ -1 10.6000 124.400 2 18 280
1912308N05143 1912 61 WP MM NOT_NAMED 1912-11-06 06:00:00 NR 10.7124 123.785 main 0 0 __________P___ -1 10.7124 123.785 2 19 280
1912308N05143 1912 61 WP MM NOT_NAMED 1912-11-06 09:00:00 NR 10.8879 122.811 main 0 0 __________P___ -1 10.8879 122.811 2 20 280
1912308N05143 1912 61 WP MM NOT_NAMED 1912-11-06 12:00:00 NR 11.0493 121.793 main 24 39 __________P___ -1 11.0493 121.793 2 20 278
1912308N05143 1912 61 WP MM NOT_NAMED 1912-11-06 15:00:00 NR 11.1720 120.750 main 116 98 __________P___ -1 11.1720 120.750 2 21 276
1912308N05143 1912 61 WP MM NOT_NAMED 1912-11-06 16:00:00 NR 11.2000 120.400 main 88 15 __________O___ -1 11.2000 120.400 2 21 272
1912308N05143 1912 61 WP MM NOT_NAMED 1912-11-06 18:00:00 NR 11.2074 119.690 main 15 0 __________P___ -1 11.2074 119.690 2 21 269
1912308N05143 1912 61 WP MM NOT_NAMED 1912-11-06 21:00:00 NR 11.1744 118.611 main 83 83 __________P___ -1 11.1744 118.611 2 21 268
1912308N05143 1912 61 WP MM NOT_NAMED 1912-11-07 00:00:00 NR 11.1240 117.546 main 181 181 __________P___ -1 11.1240 117.546 2 21 268
1912308N05143 1912 61 WP MM NOT_NAMED 1912-11-07 03:00:00 NR 11.0968 116.525 main 256 256 __________P___ -1 11.0968 116.525 2 20 269
1912308N05143 1912 61 WP MM NOT_NAMED 1912-11-07 04:00:00 NR 11.1000 116.200 main 275 275 __________O___ -1 11.1000 116.200 2 18 273
1912308N05143 1912 61 WP MM NOT_NAMED 1912-11-07 06:00:00 NR 11.1479 115.586 main 321 336 __________P___ -1 11.1479 115.586 2 18 276
1912308N05143 1912 61 WP MM NOT_NAMED 1912-11-07 09:00:00 NR 11.2586 114.714 main 407 407 __________P___ -1 11.2586 114.714 2 17 279
1912308N05143 1912 61 WP MM NOT_NAMED 1912-11-07 12:00:00 NR 11.3991 113.883 main 483 407 __________P___ -1 11.3991 113.883 2 16 280
1912308N05143 1912 61 WP MM NOT_NAMED 1912-11-07 15:00:00 NR 11.5505 113.070 main 407 376 __________P___ -1 11.5505 113.070 2 16 281
1912308N05143 1912 61 WP MM NOT_NAMED 1912-11-07 16:00:00 NR 11.6000 112.800 main 376 320 __________O___ -1 11.6000 112.800 4 16 280
1912308N05143 1912 61 WP MM NOT_NAMED 1912-11-07 18:00:00 NR 11.6945 112.257 main 320 225 __________P___ -1 11.6945 112.257 4 16 280
1912308N05143 1912 61 WP MM NOT_NAMED 1912-11-07 21:00:00 NR 11.8259 111.435 main 225 141 __________P___ -1 11.8259 111.435 4 16 279
1912308N05143 1912 61 WP MM NOT_NAMED 1912-11-08 00:00:00 NR 11.9476 110.608 main 141 58 __________P___ -1 11.9476 110.608 4 16 278
1912308N05143 1912 61 WP MM NOT_NAMED 1912-11-08 03:00:00 NR 12.0626 109.777 main 58 31 __________P___ -1 12.0626 109.777 4 16 278
1912308N05143 1912 61 WP MM NOT_NAMED 1912-11-08 04:00:00 NR 12.1000 109.500 main 31 __________O___ -1 12.1000 109.500 4 16 278

デジタル台風データ・検索

IBTrACS Databaseについて

本データベースは、米国NOAAが公開する1842年以降の世界の熱帯低気圧のベストトラックデータアーカイブInternational Best Track Archive for Climate Stewardship (IBTrACS)を、ウェブで閲覧しやすい形式に変換したものです。

最終更新日:2021-11-26